• Join FlightAware (Why Join?)
  • Login
  • US Flag 
06:25PM EDT


 

Airport Tracker/Info


-or-


 

Live Flight TrackerFlight Track Log ✈ N52522 ✈ 02-May-2013 ✈ KLEX - KYIP

Flight Track Log - Related Links

Times and Time Zones

All times are in EDT time to prevent confusion due to time zone crossing. See the N52522 flight status page for this flight to view local times or setup timezone preferences in your user account.

Time Position Orientation Groundspeed Altitude Reporting Facility
EDT Latitude Longitude Course Direction KTS MPH feet Rate Location/Type
06:01PM 38.0353 -84.6575 11° North 54 62 2,800  Level Indianapolis Center
06:02PM 38.0575 -84.6561 North 73 84 3,400 480 Climbing Indianapolis Center
06:03PM 38.0792 -84.6525 North 75 86 3,900 480 Climbing Indianapolis Center
06:04PM 38.1094 -84.6444 12° North 83 96 4,500 540 Climbing Indianapolis Center
06:05PM 38.2709 -84.5520 11° North  Level Estimated
06:05PM 38.1353 -84.6436 North 89 102 5,100  Level Indianapolis Center
06:06PM 38.3100 -84.5425 11° North  Level Estimated
06:06PM 38.1581 -84.6531 342° North 90 104 5,500  Level Indianapolis Center
06:07PM 38.1789 -84.6314 39° Northeast 90 104 5,500  Level Indianapolis Center
06:08PM 38.2097 -84.6164 21° North 104 120 5,500  Level Indianapolis Center
06:09PM 38.2414 -84.6069 13° North 112 129 5,500  Level Indianapolis Center
06:10PM 38.2797 -84.5969 12° North 117 135 5,500  Level Indianapolis Center
06:11PM 38.3133 -84.5897 10° North 119 137 5,500 -60 Level Indianapolis Center
06:12PM 38.3453 -84.5758 19° North 120 138 5,400  Descending Indianapolis Center
06:13PM 38.3792 -84.5689 North 122 140 5,500  Climbing Indianapolis Center
06:14PM 38.4122 -84.5664 North 123 142 5,500  Level Indianapolis Center
06:15PM 38.4514 -84.5550 13° North 121 139 5,500  Level Indianapolis Center
06:16PM 38.4844 -84.5447 14° North 121 139 5,500  Level Indianapolis Center
06:17PM 38.5189 -84.5342 13° North 123 142 5,500 -60 Level Indianapolis Center
06:18PM 38.5511 -84.5242 14° North 123 142 5,400  Descending Indianapolis Center
06:19PM 38.5769 -84.5006 36° Northeast 117 135 5,500  Climbing Indianapolis Center
06:20PM 38.6056 -84.4783 31° Northeast 118 136 5,500  Level Indianapolis Center
06:21PM 38.6419 -84.4664 14° North 123 142 5,500 -60 Level Indianapolis Center
06:22PM 38.6775 -84.4772 347° North 126 145 5,400 -60 Descending Indianapolis Center
06:23PM 38.7058 -84.4536 33° Northeast 123 142 5,400  Level Indianapolis Center
06:24PM 38.7339 -84.4306 33° Northeast 119 137 5,400  Level Indianapolis Center
06:26PM 38.7614 -84.4067 34° Northeast 119 137 5,400  Level Indianapolis Center
06:27PM 38.7919 -84.3906 22° Northeast 119 137 5,500 -60 Climbing Indianapolis Center
06:28PM 38.8261 -84.3853 North 121 139 5,300  Descending Indianapolis Center
06:29PM 38.8658 -84.3789 North 121 139 5,500 60 Climbing Indianapolis Center
06:30PM 38.8992 -84.3694 12° North 121 139 5,500  Level Indianapolis Center
06:31PM 38.9314 -84.3578 16° North 119 137 5,500 -60 Level Indianapolis Center
06:32PM 38.9656 -84.3511 North 123 142 5,400 -60 Descending Indianapolis Center
06:33PM 39.0008 -84.3442 North 126 145 5,400  Level Indianapolis Center
06:34PM 39.0336 -84.3344 13° North 124 143 5,500  Climbing Indianapolis Center
06:35PM 39.0647 -84.3286 North 117 135 5,400  Descending Indianapolis Center
06:36PM 39.0989 -84.3200 11° North 119 137 5,500  Climbing Indianapolis Center
06:37PM 39.1386 -84.3094 12° North 122 140 5,500  Level Indianapolis Center
06:37PM 39.1494 -84.3072 North 123 142 5,500  Level Indianapolis Center
06:38PM 39.1717 -84.3008 13° North 122 140 5,500 -120 Level Indianapolis Center
06:39PM 39.2050 -84.2931 10° North 131 151 5,400  Descending Indianapolis Center
06:40PM 39.2411 -84.2897 North 128 147 5,500  Climbing Indianapolis Center
06:41PM 39.2750 -84.2833 North 122 140 5,500  Level Indianapolis Center
06:42PM 39.3075 -84.2714 16° North 121 139 5,500  Level Indianapolis Center
06:43PM 39.3417 -84.2625 11° North 124 143 5,500  Level Indianapolis Center
06:44PM 39.3781 -84.2539 10° North 125 144 5,500  Level Indianapolis Center
06:44PM 39.3850 -84.2492 28° Northeast 124 143 5,500  Level Indianapolis Center
06:45PM 39.4119 -84.2475 North 124 143 5,500  Level Indianapolis Center
06:45PM 39.4192 -84.2431 25° Northeast 123 142 5,500  Level Indianapolis Center
06:46PM 39.4464 -84.2358 12° North 126 145 5,500 -120 Level Indianapolis Center
06:46PM 39.4542 -84.2325 18° North 125 144 5,400 -120 Descending Indianapolis Center
06:47PM 39.4825 -84.2297 North 125 144 5,400  Level Indianapolis Center
06:48PM 39.5189 -84.2211 10° North 123 142 5,500 60 Climbing Indianapolis Center
06:49PM 39.5531 -84.2147 North 123 142 5,600  Climbing Indianapolis Center
06:49PM 39.5567 -84.2117 33° Northeast 123 142 5,500 -120 Descending Indianapolis Center
06:50PM 39.5850 -84.2056 North 123 142 5,500 -120 Level Indianapolis Center
06:50PM 39.5908 -84.2022 24° Northeast 124 143 5,400  Descending Indianapolis Center
06:51PM 39.6172 -84.1961 10° North 128 147 5,500  Climbing Indianapolis Center
06:51PM 39.6317 -84.1922 12° North 125 144 5,400 -120 Descending Indianapolis Center
06:52PM 39.6514 -84.1897 North 123 142 5,400 60 Level Indianapolis Center
06:52PM 39.6658 -84.1858 12° North 124 143 5,500 60 Climbing Indianapolis Center
06:53PM 39.6856 -84.1808 11° North 125 144 5,500 -120 Level Indianapolis Center
06:53PM 39.7000 -84.1750 17° North 125 144 5,400  Descending Indianapolis Center
06:54PM 39.7244 -84.1669 14° North 128 147 5,500  Climbing Indianapolis Center
06:54PM 39.7350 -84.1642 11° North 126 145 5,400  Descending Indianapolis Center
06:55PM 39.7542 -84.1600 North 125 144 5,500  Climbing Indianapolis Center
06:56PM 39.7703 -84.1556 12° North 127 146 5,400  Descending Indianapolis Center
06:56PM 39.7903 -84.1539 North 123 142 5,500  Climbing Indianapolis Center
06:57PM 39.8047 -84.1508 North 125 144 5,400  Descending Indianapolis Center
06:57PM 39.8264 -84.1478 North 130 150 5,500 60 Climbing Indianapolis Center
06:58PM 39.8400 -84.1442 12° North 125 144 5,500 -120 Level Indianapolis Center
06:58PM 39.8631 -84.1361 15° North 124 143 5,400  Descending Indianapolis Center
06:59PM 39.8739 -84.1314 18° North 126 145 5,500 60 Climbing Indianapolis Center
06:59PM 39.8975 -84.1244 13° North 123 142 5,500 -120 Level Indianapolis Center
07:00PM 39.9142 -84.1206 10° North 125 144 5,400  Descending Indianapolis Center
07:00PM 39.9317 -84.1153 13° North 128 147 5,500  Climbing Indianapolis Center
07:01PM 39.9478 -84.1094 16° North 124 143 5,400  Descending Indianapolis Center
07:01PM 39.9658 -84.1089 North 120 138 5,500 60 Climbing Indianapolis Center
07:02PM 39.9808 -84.1061 North 121 139 5,500 60 Level Indianapolis Center
07:02PM 39.9975 -84.1050 North 119 137 5,600  Climbing Indianapolis Center
07:03PM 40.0142 -84.1003 12° North 120 138 5,500 -120 Descending Indianapolis Center
07:03PM 40.0297 -84.0928 20° North 122 140 5,500  Level Indianapolis Center
07:04PM 40.0475 -84.0889 10° North 121 139 5,500  Level Indianapolis Center
07:04PM 40.0617 -84.0889 360° North 125 144 5,500  Level Indianapolis Center
07:05PM 40.0819 -84.0808 17° North 124 143 5,500  Level Indianapolis Center
07:05PM 40.0958 -84.0797 North 129 148 5,500 -120 Level Indianapolis Center
07:06PM 40.1178 -84.0775 North 125 144 5,400  Descending Indianapolis Center
07:06PM 40.1364 -84.0714 14° North 126 145 5,500  Climbing Indianapolis Center
07:07PM 40.1575 -84.0639 15° North 125 144 5,400 -120 Descending Indianapolis Center
07:07PM 40.1683 -84.0619 North 127 146 5,400  Level Indianapolis Center
07:08PM 40.1925 -84.0544 13° North 126 145 5,400 60 Level Indianapolis Center
07:08PM 40.2006 -84.0525 10° North 124 143 5,500 -120 Climbing Indianapolis Center
07:09PM 40.2272 -84.0456 11° North 126 145 5,300 -60 Descending Indianapolis Center
07:10PM 40.2619 -84.0381 North 125 144 5,400 60 Climbing Indianapolis Center
07:11PM 40.2956 -84.0292 11° North 124 143 5,500  Climbing Indianapolis Center
07:12PM 40.3308 -84.0231 North 125 144 5,400  Descending Indianapolis Center
07:13PM 40.3642 -84.0147 11° North 124 143 5,500  Climbing Indianapolis Center
07:14PM 40.3994 -84.0069 10° North 125 144 5,400 -60 Descending Indianapolis Center
07:15PM 40.4392 -83.9950 13° North 125 144 5,400  Level Indianapolis Center
07:16PM 40.4742 -83.9839 14° North 126 145 5,500  Climbing Indianapolis Center
07:17PM 40.5097 -83.9778 North 127 146 5,400 -60 Descending Indianapolis Center
07:18PM 40.5461 -83.9697 10° North 129 148 5,400  Level Indianapolis Center
07:19PM 40.5803 -83.9586 14° North 127 146 5,500  Climbing Indianapolis Center
07:20PM 40.6153 -83.9542 North 126 145 5,400 -60 Descending Indianapolis Center
07:21PM 40.6497 -83.9478 North 125 144 5,400  Level Indianapolis Center
07:22PM 40.6842 -83.9331 18° North 125 144 5,400  Level Indianapolis Center
07:23PM 40.7194 -83.9217 14° North 127 146 5,400  Level Indianapolis Center
07:24PM 40.7622 -83.9161 North 130 150 5,400  Level Indianapolis Center
07:25PM 40.7964 -83.9069 11° North 127 146 5,400  Level Indianapolis Center
07:26PM 40.8311 -83.8953 14° North 126 145 5,400  Level Indianapolis Center
07:28PM 40.8658 -83.8872 10° North 126 145 5,400  Level Indianapolis Center
07:29PM 40.9017 -83.8836 North 128 147 5,400  Level Indianapolis Center
07:30PM 40.9361 -83.8717 15° North 126 145 5,400  Level Indianapolis Center
07:31PM 40.9703 -83.8639 10° North 125 144 5,400  Level Indianapolis Center
07:32PM 41.0047 -83.8547 11° North 125 144 5,400  Level Indianapolis Center
07:33PM 41.0386 -83.8444 13° North 124 143 5,400  Level Indianapolis Center
07:34PM 41.0781 -83.8353 10° North 123 142 5,400  Level Indianapolis Center
07:35PM 41.1125 -83.8294 North 123 142 5,500  Climbing Indianapolis Center
07:36PM 41.1444 -83.8181 15° North 121 139 5,400 -120 Descending Indianapolis Center